Hc Nadja Maria — V2AV4 — position and weather

sailwx.info

Track history (hours):
 
Tides and Currents Weather Stations Pressure Air Temp Water Temp Dewpoint Dewpoint Depression Visibility Wind Speed Wind Dir Waves Ship Positions

Hc Nadja Maria

Last reported at 2016-Aug-03 22:21 UTC. Time now 2016-Aug-30 05:00 UTC.
Position N 31°22' E 032°20'.
Warning: this ship's position is 26 days out of date.

Length 130 m; draft 7.6 m.

Type: Cargo ship. MMSI: 304204000.

Date/timePositionNaut miles runAvg speedWind from/ knotsBaromVisibWave heightAir tempDewpointWater temp
2016-Aug-03 22:21N 31°22' E 032°20'0 0.0
2016-Aug-03 21:33N 31°22' E 032°20'0 0.0
2016-Aug-03 17:15N 31°22' E 032°20'0 0.0
2016-Aug-03 16:33N 31°22' E 032°20'0 0.0
2016-Aug-03 15:09N 31°22' E 032°20'0 0.0
2016-Aug-03 14:24N 31°22' E 032°20'0 0.0
2016-Aug-03 13:33N 31°22' E 032°20'0 0.0
2016-Aug-03 12:33N 31°22' E 032°20'0 0.0
2016-Aug-03 11:30N 31°22' E 032°20'39 4.7
2016-Aug-03 03:09N 31°52' E 031°50'711.4
2016-Aug-03 02:32N 31°57' E 031°44'1111.5
2016-Aug-03 01:33N 32°05' E 031°35'1611.2
2016-Aug-03 00:08N 32°17' E 031°22'8312.6
2016-Aug-02 17:33N 33°19' E 030°16'1313.1
2016-Aug-02 16:33N 33°28' E 030°06'4013.1
2016-Aug-02 13:31N 33°59' E 029°35'1313.1
2016-Aug-02 12:33N 34°08' E 029°25'3012.8
2016-Aug-02 10:13N 34°31' E 029°01'231 6.6
2016-Jul-31 23:25N 37°26' E 025°56'1311.9
2016-Jul-31 22:21N 37°39' E 025°52'219 6.7
2016-Jul-30 13:31N 40°23' E 022°45'1212.0
2016-Jul-30 12:33N 40°33' E 022°52'5 4.7
2016-Jul-30 11:25N 40°38' E 022°55'0 0.0
2016-Jul-30 10:25N 40°38' E 022°55'0 0.0
2016-Jul-30 09:25N 40°38' E 022°55'0 0.0
2016-Jul-30 08:25N 40°38' E 022°55'0 0.0
2016-Jul-30 07:28N 40°38' E 022°55'0 0.0
2016-Jul-30 06:28N 40°38' E 022°55'0 0.0
2016-Jul-30 05:31N 40°38' E 022°55'0 0.0
2016-Jul-30 04:31N 40°38' E 022°55'0 0.0
2016-Jul-30 03:31N 40°38' E 022°55'0 0.0
2016-Jul-30 02:31N 40°38' E 022°55'0 0.0
2016-Jul-30 01:31N 40°38' E 022°55'0 0.0
2016-Jul-30 00:31N 40°38' E 022°55'0 0.0
2016-Jul-29 23:31N 40°38' E 022°55'0 0.0
2016-Jul-29 22:22N 40°38' E 022°55'0 0.0
2016-Jul-29 21:25N 40°38' E 022°55'0 0.0
2016-Jul-29 20:25N 40°38' E 022°55'0 0.0
2016-Jul-29 19:25N 40°38' E 022°55'0 0.0
2016-Jul-29 18:28N 40°38' E 022°55'0 0.0
2016-Jul-29 17:28N 40°38' E 022°55'0 0.0
2016-Jul-29 16:28N 40°38' E 022°55'0 0.0
2016-Jul-29 15:31N 40°38' E 022°55'0 0.0
2016-Jul-29 14:31N 40°38' E 022°55'0 0.0
2016-Jul-29 13:31N 40°38' E 022°55'0 0.0
2016-Jul-29 12:31N 40°38' E 022°55'0 0.0
2016-Jul-29 11:31N 40°38' E 022°55'0 0.0
2016-Jul-29 10:31N 40°38' E 022°55'0 0.0
2016-Jul-29 09:31N 40°38' E 022°55'0 0.0
2016-Jul-29 08:22N 40°38' E 022°55'0 0.0
2016-Jul-29 07:25N 40°38' E 022°55'0 0.0
2016-Jul-29 06:25N 40°38' E 022°55'0 0.0
2016-Jul-29 05:25N 40°38' E 022°55'0 0.0
2016-Jul-29 04:28N 40°38' E 022°55'0 0.0
2016-Jul-29 03:28N 40°38' E 022°55'0 0.0
2016-Jul-29 02:28N 40°38' E 022°55'0 0.0
2016-Jul-29 01:31N 40°38' E 022°55'0 0.0
2016-Jul-29 00:31N 40°38' E 022°55'0 0.0
2016-Jul-28 23:31N 40°38' E 022°55'0 0.0
2016-Jul-28 22:31N 40°38' E 022°55'0 0.0
2016-Jul-28 21:31N 40°38' E 022°55'0 0.0
2016-Jul-28 20:31N 40°38' E 022°55'0 0.0
2016-Jul-28 19:22N 40°38' E 022°55'0 0.0
2016-Jul-28 18:19N 40°38' E 022°55'0 0.0
2016-Jul-28 17:25N 40°38' E 022°55'0 0.0
2016-Jul-28 16:25N 40°38' E 022°55'0 0.0
2016-Jul-28 15:22N 40°38' E 022°55'0 0.0
2016-Jul-28 14:28N 40°38' E 022°55'0 0.0
2016-Jul-28 13:28N 40°38' E 022°55'0 0.0
2016-Jul-28 12:28N 40°38' E 022°55'0 0.0
2016-Jul-28 11:31N 40°38' E 022°55'0 0.0
2016-Jul-28 10:31N 40°38' E 022°55'0 0.0
2016-Jul-28 09:31N 40°38' E 022°55'0 0.0
2016-Jul-28 08:19N 40°38' E 022°55'0 0.0
2016-Jul-28 07:31N 40°38' E 022°55'0 0.0
2016-Jul-28 06:31N 40°38' E 022°55'0 0.0
2016-Jul-28 05:31N 40°38' E 022°55'0 0.0
2016-Jul-28 04:22N 40°38' E 022°55'0 0.0
2016-Jul-28 03:25N 40°38' E 022°55'0 0.0
2016-Jul-28 02:25N 40°38' E 022°55'0 0.0
2016-Jul-28 01:25N 40°38' E 022°55'0 0.0
2016-Jul-28 00:28N 40°38' E 022°55'0 0.0
2016-Jul-27 23:28N 40°38' E 022°55'0 0.0
2016-Jul-27 22:28N 40°38' E 022°55'0 0.0
2016-Jul-27 21:31N 40°38' E 022°55'0 0.0
2016-Jul-27 20:31N 40°38' E 022°55'0 0.0
2016-Jul-27 19:31N 40°38' E 022°55'0 0.0
2016-Jul-27 18:31N 40°38' E 022°55'0 0.0
2016-Jul-27 17:31N 40°38' E 022°55'0 0.0
2016-Jul-27 16:31N 40°38' E 022°55'0 0.0
2016-Jul-27 15:22N 40°38' E 022°55'0 0.0
2016-Jul-27 14:22N 40°38' E 022°55'0 0.0
2016-Jul-27 13:25N 40°38' E 022°55'0 0.0
2016-Jul-27 12:25N 40°38' E 022°55'0 0.0
2016-Jul-27 11:25N 40°38' E 022°55'0 0.0
2016-Jul-27 10:28N 40°38' E 022°55'0 0.0
2016-Jul-27 09:28N 40°38' E 022°55'0 0.0
2016-Jul-27 08:28N 40°38' E 022°55'0 0.0
2016-Jul-27 07:31N 40°38' E 022°55'0 0.0
2016-Jul-27 06:31N 40°38' E 022°55'0 0.0
2016-Jul-27 05:31N 40°38' E 022°55'0 0.0
2016-Jul-27 04:31N 40°38' E 022°55'0 0.0
2016-Jul-27 03:31N 40°38' E 022°55'0 0.0
2016-Jul-27 02:31N 40°38' E 022°55'0 0.0
2016-Jul-27 01:22N 40°38' E 022°55'0 0.0
2016-Jul-27 00:25N 40°38' E 022°55'0 0.0
2016-Jul-26 23:25N 40°38' E 022°55'0 0.0
2016-Jul-26 21:28N 40°38' E 022°55'0 0.0
2016-Jul-26 20:28N 40°38' E 022°55'0 0.0
2016-Jul-26 19:28N 40°38' E 022°55'0 0.0
2016-Jul-26 18:31N 40°38' E 022°55'0 0.0
2016-Jul-26 17:31N 40°38' E 022°55'0 0.0
2016-Jul-26 16:31N 40°38' E 022°55'0 0.0
2016-Jul-26 15:31N 40°38' E 022°55'0 0.0
2016-Jul-26 14:31N 40°38' E 022°55'0 0.0
2016-Jul-26 13:31N 40°38' E 022°55'0 0.0
2016-Jul-26 12:31N 40°38' E 022°55'0 0.0
2016-Jul-25 05:25N 40°38' E 022°55'0 0.0
2016-Jul-25 04:25N 40°38' E 022°55'0 0.0
2016-Jul-25 03:28N 40°38' E 022°55'0 0.0
2016-Jul-25 02:28N 40°38' E 022°55'0 0.0
2016-Jul-25 01:25N 40°38' E 022°55'0 0.0
2016-Jul-25 00:31N 40°38' E 022°55'0 0.0
2016-Jul-24 23:31N 40°38' E 022°55'0 0.0
2016-Jul-24 22:31N 40°38' E 022°55'  
Track history (hours):
 
Tides and Currents Weather Stations Pressure Air Temp Water Temp Dewpoint Dewpoint Depression Visibility Wind Speed Wind Dir Waves Ship Positions

Hc Nadja Maria

Last reported at 2016-Aug-03 22:21 UTC. Time now 2016-Aug-30 05:00 UTC.
Position N 31°22' E 032°20'.
Warning: this ship's position is 26 days out of date.

Length 130 m; draft 7.6 m.

Type: Cargo ship. MMSI: 304204000.

Date/timePositionNaut miles runAvg speedWind from/ knotsBaromVisibWave heightAir tempDewpointWater temp
2016-Aug-03 22:21N 31°22' E 032°20'0 0.0
2016-Aug-03 21:33N 31°22' E 032°20'0 0.0
2016-Aug-03 17:15N 31°22' E 032°20'0 0.0
2016-Aug-03 16:33N 31°22' E 032°20'0 0.0
2016-Aug-03 15:09N 31°22' E 032°20'0 0.0
2016-Aug-03 14:24N 31°22' E 032°20'0 0.0
2016-Aug-03 13:33N 31°22' E 032°20'0 0.0
2016-Aug-03 12:33N 31°22' E 032°20'0 0.0
2016-Aug-03 11:30N 31°22' E 032°20'39 4.7
2016-Aug-03 03:09N 31°52' E 031°50'711.4
2016-Aug-03 02:32N 31°57' E 031°44'1111.5
2016-Aug-03 01:33N 32°05' E 031°35'1611.2
2016-Aug-03 00:08N 32°17' E 031°22'8312.6
2016-Aug-02 17:33N 33°19' E 030°16'1313.1
2016-Aug-02 16:33N 33°28' E 030°06'4013.1
2016-Aug-02 13:31N 33°59' E 029°35'1313.1
2016-Aug-02 12:33N 34°08' E 029°25'3012.8
2016-Aug-02 10:13N 34°31' E 029°01'231 6.6
2016-Jul-31 23:25N 37°26' E 025°56'1311.9
2016-Jul-31 22:21N 37°39' E 025°52'219 6.7
2016-Jul-30 13:31N 40°23' E 022°45'1212.0
2016-Jul-30 12:33N 40°33' E 022°52'5 4.7
2016-Jul-30 11:25N 40°38' E 022°55'0 0.0
2016-Jul-30 10:25N 40°38' E 022°55'0 0.0
2016-Jul-30 09:25N 40°38' E 022°55'0 0.0
2016-Jul-30 08:25N 40°38' E 022°55'0 0.0
2016-Jul-30 07:28N 40°38' E 022°55'0 0.0
2016-Jul-30 06:28N 40°38' E 022°55'0 0.0
2016-Jul-30 05:31N 40°38' E 022°55'0 0.0
2016-Jul-30 04:31N 40°38' E 022°55'0 0.0
2016-Jul-30 03:31N 40°38' E 022°55'0 0.0
2016-Jul-30 02:31N 40°38' E 022°55'0 0.0
2016-Jul-30 01:31N 40°38' E 022°55'0 0.0
2016-Jul-30 00:31N 40°38' E 022°55'0 0.0
2016-Jul-29 23:31N 40°38' E 022°55'0 0.0
2016-Jul-29 22:22N 40°38' E 022°55'0 0.0
2016-Jul-29 21:25N 40°38' E 022°55'0 0.0
2016-Jul-29 20:25N 40°38' E 022°55'0 0.0
2016-Jul-29 19:25N 40°38' E 022°55'0 0.0
2016-Jul-29 18:28N 40°38' E 022°55'0 0.0
2016-Jul-29 17:28N 40°38' E 022°55'0 0.0
2016-Jul-29 16:28N 40°38' E 022°55'0 0.0
2016-Jul-29 15:31N 40°38' E 022°55'0 0.0
2016-Jul-29 14:31N 40°38' E 022°55'0 0.0
2016-Jul-29 13:31N 40°38' E 022°55'0 0.0
2016-Jul-29 12:31N 40°38' E 022°55'0 0.0
2016-Jul-29 11:31N 40°38' E 022°55'0 0.0
2016-Jul-29 10:31N 40°38' E 022°55'0 0.0
2016-Jul-29 09:31N 40°38' E 022°55'0 0.0
2016-Jul-29 08:22N 40°38' E 022°55'0 0.0
2016-Jul-29 07:25N 40°38' E 022°55'0 0.0
2016-Jul-29 06:25N 40°38' E 022°55'0 0.0
2016-Jul-29 05:25N 40°38' E 022°55'0 0.0
2016-Jul-29 04:28N 40°38' E 022°55'0 0.0
2016-Jul-29 03:28N 40°38' E 022°55'0 0.0
2016-Jul-29 02:28N 40°38' E 022°55'0 0.0
2016-Jul-29 01:31N 40°38' E 022°55'0 0.0
2016-Jul-29 00:31N 40°38' E 022°55'0 0.0
2016-Jul-28 23:31N 40°38' E 022°55'0 0.0
2016-Jul-28 22:31N 40°38' E 022°55'0 0.0
2016-Jul-28 21:31N 40°38' E 022°55'0 0.0
2016-Jul-28 20:31N 40°38' E 022°55'0 0.0
2016-Jul-28 19:22N 40°38' E 022°55'0 0.0
2016-Jul-28 18:19N 40°38' E 022°55'0 0.0
2016-Jul-28 17:25N 40°38' E 022°55'0 0.0
2016-Jul-28 16:25N 40°38' E 022°55'0 0.0
2016-Jul-28 15:22N 40°38' E 022°55'0 0.0
2016-Jul-28 14:28N 40°38' E 022°55'0 0.0
2016-Jul-28 13:28N 40°38' E 022°55'0 0.0
2016-Jul-28 12:28N 40°38' E 022°55'0 0.0
2016-Jul-28 11:31N 40°38' E 022°55'0 0.0
2016-Jul-28 10:31N 40°38' E 022°55'0 0.0
2016-Jul-28 09:31N 40°38' E 022°55'0 0.0
2016-Jul-28 08:19N 40°38' E 022°55'0 0.0
2016-Jul-28 07:31N 40°38' E 022°55'0 0.0
2016-Jul-28 06:31N 40°38' E 022°55'0 0.0
2016-Jul-28 05:31N 40°38' E 022°55'0 0.0
2016-Jul-28 04:22N 40°38' E 022°55'0 0.0
2016-Jul-28 03:25N 40°38' E 022°55'0 0.0
2016-Jul-28 02:25N 40°38' E 022°55'0 0.0
2016-Jul-28 01:25N 40°38' E 022°55'0 0.0
2016-Jul-28 00:28N 40°38' E 022°55'0 0.0
2016-Jul-27 23:28N 40°38' E 022°55'0 0.0
2016-Jul-27 22:28N 40°38' E 022°55'0 0.0
2016-Jul-27 21:31N 40°38' E 022°55'0 0.0
2016-Jul-27 20:31N 40°38' E 022°55'0 0.0
2016-Jul-27 19:31N 40°38' E 022°55'0 0.0
2016-Jul-27 18:31N 40°38' E 022°55'0 0.0
2016-Jul-27 17:31N 40°38' E 022°55'0 0.0
2016-Jul-27 16:31N 40°38' E 022°55'0 0.0
2016-Jul-27 15:22N 40°38' E 022°55'0 0.0
2016-Jul-27 14:22N 40°38' E 022°55'0 0.0
2016-Jul-27 13:25N 40°38' E 022°55'0 0.0
2016-Jul-27 12:25N 40°38' E 022°55'0 0.0
2016-Jul-27 11:25N 40°38' E 022°55'0 0.0
2016-Jul-27 10:28N 40°38' E 022°55'0 0.0
2016-Jul-27 09:28N 40°38' E 022°55'0 0.0
2016-Jul-27 08:28N 40°38' E 022°55'0 0.0
2016-Jul-27 07:31N 40°38' E 022°55'0 0.0
2016-Jul-27 06:31N 40°38' E 022°55'0 0.0
2016-Jul-27 05:31N 40°38' E 022°55'0 0.0
2016-Jul-27 04:31N 40°38' E 022°55'0 0.0
2016-Jul-27 03:31N 40°38' E 022°55'0 0.0
2016-Jul-27 02:31N 40°38' E 022°55'0 0.0
2016-Jul-27 01:22N 40°38' E 022°55'0 0.0
2016-Jul-27 00:25N 40°38' E 022°55'0 0.0
2016-Jul-26 23:25N 40°38' E 022°55'0 0.0
2016-Jul-26 21:28N 40°38' E 022°55'0 0.0
2016-Jul-26 20:28N 40°38' E 022°55'0 0.0
2016-Jul-26 19:28N 40°38' E 022°55'0 0.0
2016-Jul-26 18:31N 40°38' E 022°55'0 0.0
2016-Jul-26 17:31N 40°38' E 022°55'0 0.0
2016-Jul-26 16:31N 40°38' E 022°55'0 0.0
2016-Jul-26 15:31N 40°38' E 022°55'0 0.0
2016-Jul-26 14:31N 40°38' E 022°55'0 0.0
2016-Jul-26 13:31N 40°38' E 022°55'0 0.0
2016-Jul-26 12:31N 40°38' E 022°55'0 0.0
2016-Jul-25 05:25N 40°38' E 022°55'0 0.0
2016-Jul-25 04:25N 40°38' E 022°55'0 0.0
2016-Jul-25 03:28N 40°38' E 022°55'0 0.0
2016-Jul-25 02:28N 40°38' E 022°55'0 0.0
2016-Jul-25 01:25N 40°38' E 022°55'0 0.0
2016-Jul-25 00:31N 40°38' E 022°55'0 0.0
2016-Jul-24 23:31N 40°38' E 022°55'0 0.0
2016-Jul-24 22:31N 40°38' E 022°55'  

Dump ship's entire track history